createdAt,value
2018-11-03T00:00:53.832Z,943.49
2018-11-03T00:01:53.844Z,943.49
2018-11-03T00:02:53.826Z,943.48
2018-11-03T00:03:53.799Z,943.44
2018-11-03T00:04:53.791Z,943.45
2018-11-03T00:05:53.780Z,943.46
2018-11-03T00:06:53.766Z,943.41
2018-11-03T00:07:53.791Z,943.36
2018-11-03T00:08:53.744Z,943.34
2018-11-03T00:09:53.732Z,943.30
2018-11-03T00:10:53.723Z,943.29
2018-11-03T00:11:53.734Z,943.26
2018-11-03T00:12:53.704Z,943.25
2018-11-03T00:13:53.709Z,943.21
2018-11-03T00:14:53.679Z,943.16
2018-11-03T00:15:53.670Z,943.16
2018-11-03T00:16:53.656Z,943.18
2018-11-03T00:17:53.643Z,943.20
2018-11-03T00:18:53.652Z,943.22
2018-11-03T00:19:53.636Z,943.21
2018-11-03T00:20:53.614Z,943.23
2018-11-03T00:21:53.601Z,943.19
2018-11-03T00:22:53.597Z,943.20
2018-11-03T00:23:53.598Z,943.20
2018-11-03T00:24:53.569Z,943.20
2018-11-03T00:25:53.560Z,943.22
2018-11-03T00:26:53.547Z,943.26
2018-11-03T00:27:53.542Z,943.27
2018-11-03T00:28:53.543Z,943.22
2018-11-03T00:29:53.515Z,943.23
2018-11-03T00:30:53.499Z,943.20
2018-11-03T00:31:53.490Z,943.18
2018-11-03T00:32:53.477Z,943.19
2018-11-03T00:33:53.482Z,943.21
2018-11-03T00:34:53.462Z,943.22
2018-11-03T00:35:53.446Z,943.17
2018-11-03T00:36:53.438Z,943.23
2018-11-03T00:37:53.424Z,943.23
2018-11-03T00:38:53.434Z,943.26
2018-11-03T00:39:53.405Z,943.27
2018-11-03T00:40:53.393Z,943.31
2018-11-03T00:41:53.378Z,943.33
2018-11-03T00:42:53.553Z,943.32
2018-11-03T00:43:53.373Z,943.31
2018-11-03T00:44:53.346Z,943.30
2018-11-03T00:45:53.333Z,943.29
2018-11-03T00:46:53.338Z,943.24
2018-11-03T00:47:53.315Z,943.25
2018-11-03T00:48:53.320Z,943.23
2018-11-03T00:49:53.291Z,943.21
2018-11-03T00:50:53.284Z,943.27
2018-11-03T00:51:53.267Z,943.31
2018-11-03T00:52:53.292Z,943.30
2018-11-03T00:53:53.266Z,943.31
2018-11-03T00:54:53.240Z,943.32
2018-11-03T00:55:53.227Z,943.31
2018-11-03T00:56:53.219Z,943.32
2018-11-03T00:57:53.203Z,943.32
2018-11-03T00:58:53.210Z,943.35
2018-11-03T00:59:53.184Z,943.34
2018-11-03T01:00:53.174Z,943.39
2018-11-03T01:01:53.192Z,943.44
2018-11-03T01:02:53.148Z,943.47
2018-11-03T01:03:53.155Z,943.46
2018-11-03T01:04:53.124Z,943.54
2018-11-03T01:05:53.124Z,943.54
2018-11-03T01:06:53.106Z,943.57
2018-11-03T01:07:53.093Z,943.58
2018-11-03T01:08:53.101Z,943.59
2018-11-03T01:09:53.076Z,943.59
2018-11-03T01:10:53.058Z,943.56
2018-11-03T01:11:53.059Z,943.54
2018-11-03T01:12:53.060Z,943.59
2018-11-03T01:13:53.042Z,943.63
2018-11-03T01:14:53.017Z,943.65
2018-11-03T01:15:53.005Z,943.58
2018-11-03T01:16:52.996Z,943.65
2018-11-03T01:17:52.981Z,943.60
2018-11-03T01:18:52.990Z,943.59
2018-11-03T01:19:52.961Z,943.59
2018-11-03T01:20:52.947Z,943.58
2018-11-03T01:21:52.937Z,943.55
2018-11-03T01:22:52.926Z,943.56
2018-11-03T01:23:52.964Z,943.59
2018-11-03T01:24:52.903Z,943.53
2018-11-03T01:25:52.891Z,943.57
2018-11-03T01:26:52.883Z,943.58
2018-11-03T01:27:52.874Z,943.58
2018-11-03T01:28:52.877Z,943.57
2018-11-03T01:29:52.851Z,943.60
2018-11-03T01:30:52.851Z,943.57
2018-11-03T01:31:52.836Z,943.54
2018-11-03T01:32:52.823Z,943.56
2018-11-03T01:33:52.834Z,943.59
2018-11-03T01:34:52.797Z,943.54
2018-11-03T01:35:52.786Z,943.54
2018-11-03T01:36:52.773Z,943.54
2018-11-03T01:37:52.769Z,943.53
2018-11-03T01:38:52.748Z,943.48
2018-11-03T01:39:52.756Z,943.45
2018-11-03T01:40:52.727Z,943.43
2018-11-03T01:41:52.715Z,943.39
2018-11-03T01:42:52.710Z,943.38
2018-11-03T01:43:52.699Z,943.35
2018-11-03T01:44:52.700Z,943.38
2018-11-03T01:45:52.672Z,943.32
2018-11-03T01:46:52.662Z,943.36
2018-11-03T01:47:52.652Z,943.37
2018-11-03T01:48:52.640Z,943.36
2018-11-03T01:49:52.651Z,943.35
2018-11-03T01:50:52.617Z,943.32
2018-11-03T01:51:52.609Z,943.34
2018-11-03T01:52:52.614Z,943.28
2018-11-03T01:53:52.590Z,943.28
2018-11-03T01:54:52.599Z,943.27
2018-11-03T01:55:52.562Z,943.28
2018-11-03T01:56:52.556Z,943.24
2018-11-03T01:57:52.544Z,943.19
2018-11-03T01:58:52.532Z,943.18
2018-11-03T01:59:52.539Z,943.18
2018-11-03T02:00:52.510Z,943.22
2018-11-03T02:01:52.498Z,943.22
2018-11-03T02:02:52.485Z,943.25
2018-11-03T02:03:52.478Z,943.28
2018-11-03T02:04:52.490Z,943.28
2018-11-03T02:05:52.457Z,943.21
2018-11-03T02:06:52.442Z,943.23
2018-11-03T02:07:52.431Z,943.19
2018-11-03T02:08:52.420Z,943.17
2018-11-03T02:09:52.438Z,943.17
2018-11-03T02:10:52.402Z,943.19
2018-11-03T02:11:52.402Z,943.14
2018-11-03T02:12:52.380Z,943.15
2018-11-03T02:13:52.387Z,943.10
2018-11-03T02:14:52.371Z,943.12
2018-11-03T02:15:52.343Z,943.09
2018-11-03T02:16:52.333Z,943.05
2018-11-03T02:17:52.321Z,943.02
2018-11-03T02:18:52.309Z,942.96
2018-11-03T02:19:52.320Z,942.90
2018-11-03T02:20:52.290Z,942.92
2018-11-03T02:21:52.314Z,942.90
2018-11-03T02:22:52.269Z,942.91
2018-11-03T02:23:52.259Z,942.92
2018-11-03T02:24:52.268Z,942.89
2018-11-03T02:25:52.234Z,942.90
2018-11-03T02:26:52.227Z,942.89
2018-11-03T02:27:52.214Z,942.90
2018-11-03T02:28:52.213Z,942.86
2018-11-03T02:29:52.207Z,942.87
2018-11-03T02:30:52.181Z,942.84
2018-11-03T02:31:52.177Z,942.83
2018-11-03T02:32:52.161Z,942.83
2018-11-03T02:33:52.145Z,942.81
2018-11-03T02:34:52.150Z,942.79
2018-11-03T02:35:52.132Z,942.80
2018-11-03T02:36:52.116Z,942.81
2018-11-03T02:37:52.101Z,942.75
2018-11-03T02:38:52.093Z,942.72
2018-11-03T02:39:52.109Z,942.74
2018-11-03T02:40:52.076Z,942.72
2018-11-03T02:41:52.057Z,942.71
2018-11-03T02:42:52.051Z,942.73
2018-11-03T02:43:52.035Z,942.69
2018-11-03T02:44:52.044Z,942.59
2018-11-03T02:45:52.049Z,942.62
2018-11-03T02:46:52.004Z,942.55
2018-11-03T02:47:51.995Z,942.56
2018-11-03T02:48:51.982Z,942.54
2018-11-03T02:49:52.006Z,942.53
2018-11-03T02:50:51.961Z,942.51
2018-11-03T02:51:51.949Z,942.50
2018-11-03T02:52:51.936Z,942.52
2018-11-03T02:53:51.933Z,942.49
2018-11-03T02:54:51.936Z,942.46
2018-11-03T02:55:51.903Z,942.44
2018-11-03T02:56:51.908Z,942.42
2018-11-03T02:57:51.882Z,942.40
2018-11-03T02:58:51.881Z,942.42
2018-11-03T02:59:51.875Z,942.40
2018-11-03T03:00:51.850Z,942.36
2018-11-03T03:01:51.836Z,942.35
2018-11-03T03:02:51.830Z,942.38
2018-11-03T03:03:51.826Z,942.44
2018-11-03T03:04:51.821Z,942.42
2018-11-03T03:05:51.796Z,942.45
2018-11-03T03:06:51.782Z,942.44
2018-11-03T03:07:51.775Z,942.41
2018-11-03T03:08:51.763Z,942.43
2018-11-03T03:09:51.767Z,942.47
2018-11-03T03:10:51.741Z,942.49
2018-11-03T03:11:51.735Z,942.50
2018-11-03T03:12:51.716Z,942.53
2018-11-03T03:13:51.719Z,942.56
2018-11-03T03:14:51.712Z,942.56
2018-11-03T03:15:51.683Z,942.58
2018-11-03T03:16:51.674Z,942.53
2018-11-03T03:17:51.672Z,942.54
2018-11-03T03:18:51.658Z,942.56
2018-11-03T03:19:51.666Z,942.56
2018-11-03T03:20:51.628Z,942.56
2018-11-03T03:21:51.623Z,942.53
2018-11-03T03:22:51.612Z,942.54
2018-11-03T03:23:51.600Z,942.57
2018-11-03T03:24:51.601Z,942.55
2018-11-03T03:25:51.575Z,942.56
2018-11-03T03:26:51.566Z,942.58
2018-11-03T03:27:51.552Z,942.61
2018-11-03T03:28:51.576Z,942.60
2018-11-03T03:29:51.552Z,942.67
2018-11-03T03:30:51.522Z,942.62
2018-11-03T03:31:51.510Z,942.70
2018-11-03T03:32:51.500Z,942.72
2018-11-03T03:33:51.496Z,942.80
2018-11-03T03:34:51.499Z,942.75
2018-11-03T03:35:51.467Z,942.73
2018-11-03T03:36:51.455Z,942.70
2018-11-03T03:37:51.446Z,942.69
2018-11-03T03:38:51.433Z,942.72
2018-11-03T03:39:51.477Z,942.68
2018-11-03T03:40:51.415Z,942.71
2018-11-03T03:41:51.400Z,942.66
2018-11-03T03:42:51.398Z,942.62
2018-11-03T03:43:51.381Z,942.61
2018-11-03T03:44:51.387Z,942.63
2018-11-03T03:45:51.355Z,942.58
2018-11-03T03:46:51.345Z,942.62
2018-11-03T03:47:51.335Z,942.71
2018-11-03T03:48:51.324Z,942.60
2018-11-03T03:49:51.328Z,942.60
2018-11-03T03:50:51.300Z,942.64
2018-11-03T03:51:51.314Z,942.61
2018-11-03T03:52:51.305Z,942.56
2018-11-03T03:53:51.275Z,942.67
2018-11-03T03:54:51.273Z,942.62
2018-11-03T03:55:51.245Z,942.65
2018-11-03T03:56:51.237Z,942.61
2018-11-03T03:57:51.222Z,942.64
2018-11-03T03:58:51.211Z,942.60
2018-11-03T03:59:51.217Z,942.62
2018-11-03T04:00:51.198Z,942.58
2018-11-03T04:01:51.184Z,942.58
2018-11-03T04:02:51.238Z,942.55
2018-11-03T04:03:51.157Z,942.58
2018-11-03T04:04:51.162Z,942.61
2018-11-03T04:05:51.137Z,942.58
2018-11-03T04:06:51.129Z,942.60
2018-11-03T04:07:51.115Z,942.61
2018-11-03T04:08:51.105Z,942.62
2018-11-03T04:09:51.110Z,942.70
2018-11-03T04:10:51.082Z,942.69
2018-11-03T04:11:51.075Z,942.71
2018-11-03T04:12:51.057Z,942.72
2018-11-03T04:13:51.049Z,942.75
2018-11-03T04:14:51.059Z,942.74
2018-11-03T04:15:51.023Z,942.66
2018-11-03T04:16:51.014Z,942.64
2018-11-03T04:17:51.004Z,942.69
2018-11-03T04:18:51.004Z,942.64
2018-11-03T04:19:51.006Z,942.69
2018-11-03T04:20:50.981Z,942.65
2018-11-03T04:21:50.959Z,942.61
2018-11-03T04:22:50.949Z,942.70
2018-11-03T04:23:50.941Z,942.64
2018-11-03T04:24:50.940Z,942.66
2018-11-03T04:25:50.916Z,942.62
2018-11-03T04:26:50.909Z,942.63
2018-11-03T04:27:50.896Z,942.61
2018-11-03T04:28:50.887Z,942.57
2018-11-03T04:29:50.887Z,942.59
2018-11-03T04:30:50.876Z,942.60
2018-11-03T04:31:50.851Z,942.62
2018-11-03T04:32:50.844Z,942.69
2018-11-03T04:33:50.829Z,942.66
2018-11-03T04:34:50.833Z,942.68
2018-11-03T04:35:50.805Z,942.70
2018-11-03T04:36:50.794Z,942.66
2018-11-03T04:37:50.788Z,942.67
2018-11-03T04:38:50.787Z,942.67
2018-11-03T04:39:50.785Z,942.66
2018-11-03T04:40:50.752Z,942.69
2018-11-03T04:41:50.744Z,942.66
2018-11-03T04:42:50.741Z,942.65
2018-11-03T04:43:50.725Z,942.65
2018-11-03T04:44:50.738Z,942.63
2018-11-03T04:45:50.697Z,942.68
2018-11-03T04:46:50.690Z,942.69
2018-11-03T04:47:50.717Z,942.73
2018-11-03T04:48:50.664Z,942.77
2018-11-03T04:49:50.658Z,942.81
2018-11-03T04:50:50.655Z,942.78
2018-11-03T04:51:50.631Z,942.85
2018-11-03T04:52:50.622Z,942.88
2018-11-03T04:53:50.613Z,942.89
2018-11-03T04:54:50.600Z,942.86
2018-11-03T04:55:50.616Z,942.90
2018-11-03T04:56:50.578Z,942.84
2018-11-03T04:57:50.562Z,942.91
2018-11-03T04:58:50.554Z,942.90
2018-11-03T04:59:50.542Z,942.93
2018-11-03T05:00:50.563Z,942.92
2018-11-03T05:01:50.523Z,942.96
2018-11-03T05:02:50.537Z,942.92
2018-11-03T05:03:50.499Z,942.94
2018-11-03T05:04:50.487Z,942.94
2018-11-03T05:05:50.499Z,942.93
2018-11-03T05:06:50.466Z,942.93
2018-11-03T05:07:50.473Z,942.95
2018-11-03T05:08:50.442Z,942.91
2018-11-03T05:09:50.499Z,942.91
2018-11-03T05:10:50.441Z,942.87
2018-11-03T05:11:50.412Z,942.92
2018-11-03T05:12:50.404Z,942.95
2018-11-03T05:13:50.398Z,942.97
2018-11-03T05:14:50.377Z,942.99
2018-11-03T05:15:50.423Z,942.99
2018-11-03T05:16:50.358Z,943.00
2018-11-03T05:17:50.346Z,943.01
2018-11-03T05:18:50.331Z,943.02
2018-11-03T05:19:50.321Z,943.03
2018-11-03T05:20:50.326Z,943.02
2018-11-03T05:21:50.303Z,943.04
2018-11-03T05:22:50.288Z,943.03
2018-11-03T05:23:50.277Z,943.00
2018-11-03T05:24:50.267Z,942.97
2018-11-03T05:25:50.273Z,942.97
2018-11-03T05:26:50.254Z,943.03
2018-11-03T05:27:50.237Z,943.00
2018-11-03T05:28:50.225Z,943.02
2018-11-03T05:29:50.213Z,943.08
2018-11-03T05:30:50.218Z,943.08
2018-11-03T05:31:50.195Z,943.07
2018-11-03T05:32:50.181Z,943.06
2018-11-03T05:33:50.170Z,943.06
2018-11-03T05:34:50.182Z,943.03
2018-11-03T05:35:50.164Z,943.06
2018-11-03T05:36:50.140Z,943.05
2018-11-03T05:37:50.122Z,943.01
2018-11-03T05:38:50.125Z,942.97
2018-11-03T05:39:50.109Z,942.95
2018-11-03T05:40:50.112Z,942.91
2018-11-03T05:41:50.080Z,942.88
2018-11-03T05:42:50.072Z,942.87
2018-11-03T05:43:50.059Z,942.85
2018-11-03T05:44:50.053Z,942.83
2018-11-03T05:45:50.052Z,942.79
2018-11-03T05:46:50.034Z,942.81
2018-11-03T05:47:50.017Z,942.80
2018-11-03T05:48:50.004Z,942.82
2018-11-03T05:49:49.994Z,942.81
2018-11-03T05:50:49.994Z,942.82
2018-11-03T05:51:49.968Z,942.81
2018-11-03T05:52:49.957Z,942.80
2018-11-03T05:53:49.956Z,942.80
2018-11-03T05:54:49.940Z,942.76
2018-11-03T05:55:49.940Z,942.77
2018-11-03T05:56:49.914Z,942.76
2018-11-03T05:57:49.916Z,942.77
2018-11-03T05:58:49.900Z,942.71
2018-11-03T05:59:49.888Z,942.66
2018-11-03T06:00:49.889Z,942.66
2018-11-03T06:01:49.863Z,942.72
2018-11-03T06:02:49.848Z,942.65
2018-11-03T06:03:49.838Z,942.66
2018-11-03T06:04:49.830Z,942.74
2018-11-03T06:05:49.835Z,942.68
2018-11-03T06:06:49.806Z,942.69
2018-11-03T06:07:49.797Z,942.62
2018-11-03T06:08:49.872Z,942.65
2018-11-03T06:09:49.775Z,942.64
2018-11-03T06:10:49.778Z,942.70
2018-11-03T06:11:49.754Z,942.69
2018-11-03T06:12:49.740Z,942.79
2018-11-03T06:13:49.728Z,942.73
2018-11-03T06:14:49.721Z,942.69
2018-11-03T06:15:49.722Z,942.70
2018-11-03T06:16:49.697Z,942.77
2018-11-03T06:17:49.686Z,942.77
2018-11-03T06:18:49.674Z,942.80
2018-11-03T06:19:49.669Z,942.84
2018-11-03T06:20:49.665Z,942.86
2018-11-03T06:21:49.638Z,942.89
2018-11-03T06:22:49.634Z,942.88
2018-11-03T06:23:49.618Z,942.88
2018-11-03T06:24:49.604Z,942.91
2018-11-03T06:25:49.614Z,942.91
2018-11-03T06:26:49.584Z,943.02
2018-11-03T06:27:49.609Z,943.02
2018-11-03T06:28:49.559Z,943.02
2018-11-03T06:29:49.548Z,943.00
2018-11-03T06:30:49.553Z,943.00
2018-11-03T06:31:49.526Z,942.98
2018-11-03T06:32:49.515Z,942.99
2018-11-03T06:33:49.521Z,942.97
2018-11-03T06:34:49.502Z,942.98
2018-11-03T06:35:49.498Z,943.00
2018-11-03T06:36:49.471Z,943.04
2018-11-03T06:37:49.478Z,943.02
2018-11-03T06:38:49.512Z,943.01
2018-11-03T06:39:49.437Z,943.07
2018-11-03T06:40:49.465Z,943.07
2018-11-03T06:41:49.431Z,943.01
2018-11-03T06:42:49.422Z,943.03
2018-11-03T06:43:49.393Z,943.08
2018-11-03T06:44:49.381Z,943.02
2018-11-03T06:45:49.386Z,943.10
2018-11-03T06:46:49.360Z,943.10
2018-11-03T06:47:49.353Z,943.14
2018-11-03T06:48:49.344Z,943.16
2018-11-03T06:49:49.329Z,943.16
2018-11-03T06:50:49.331Z,943.20
2018-11-03T06:51:49.304Z,943.28
2018-11-03T06:52:49.293Z,943.31
2018-11-03T06:53:49.280Z,943.29
2018-11-03T06:54:49.270Z,943.35
2018-11-03T06:55:49.291Z,943.33
2018-11-03T06:56:49.250Z,943.33
2018-11-03T06:57:49.239Z,943.32
2018-11-03T06:58:49.228Z,943.31
2018-11-03T06:59:49.228Z,943.30
2018-11-03T07:00:49.219Z,943.33
2018-11-03T07:01:49.222Z,943.34
2018-11-03T07:02:49.189Z,943.36
2018-11-03T07:03:49.170Z,943.35
2018-11-03T07:04:49.171Z,943.36
2018-11-03T07:05:49.166Z,943.43
2018-11-03T07:06:49.142Z,943.40
2018-11-03T07:07:49.138Z,943.36
2018-11-03T07:08:49.116Z,943.35
2018-11-03T07:09:49.110Z,943.32
2018-11-03T07:10:49.203Z,943.32
2018-11-03T07:11:49.092Z,943.29
2018-11-03T07:12:49.196Z,943.31
2018-11-03T07:13:49.077Z,943.27
2018-11-03T07:14:49.049Z,943.31
2018-11-03T07:15:49.062Z,943.30
2018-11-03T07:16:49.028Z,943.28
2018-11-03T07:17:49.023Z,943.28
2018-11-03T07:18:49.007Z,943.32
2018-11-03T07:19:48.995Z,943.35
2018-11-03T07:20:49.012Z,943.35
2018-11-03T07:21:49.118Z,943.35
2018-11-03T07:22:48.962Z,943.35
2018-11-03T07:23:48.949Z,943.37
2018-11-03T07:24:48.941Z,943.35
2018-11-03T07:25:48.944Z,943.36
2018-11-03T07:26:48.919Z,943.36
2018-11-03T07:27:48.908Z,943.32
2018-11-03T07:28:48.904Z,943.34
2018-11-03T07:29:48.985Z,943.35
2018-11-03T07:30:48.890Z,943.37
2018-11-03T07:31:48.864Z,943.40
2018-11-03T07:32:48.858Z,943.43
2018-11-03T07:33:48.841Z,943.36
2018-11-03T07:34:48.851Z,943.42
2018-11-03T07:35:48.841Z,943.40
2018-11-03T07:36:48.807Z,943.40
2018-11-03T07:37:48.796Z,943.43
2018-11-03T07:38:48.787Z,943.36
2018-11-03T07:39:48.776Z,943.38
2018-11-03T07:40:48.866Z,943.39
2018-11-03T07:41:48.753Z,943.37
2018-11-03T07:42:48.789Z,943.36
2018-11-03T07:43:48.731Z,943.34
2018-11-03T07:44:48.723Z,943.34
2018-11-03T07:45:48.724Z,943.35
2018-11-03T07:46:48.711Z,943.33
2018-11-03T07:47:48.692Z,943.33
2018-11-03T07:48:48.872Z,943.37
2018-11-03T07:49:48.665Z,943.34
2018-11-03T07:50:48.669Z,943.36
2018-11-03T07:51:48.648Z,943.35
2018-11-03T07:52:48.645Z,943.36
2018-11-03T07:53:48.623Z,943.37
2018-11-03T07:54:48.665Z,943.35
2018-11-03T07:55:48.631Z,943.31
2018-11-03T07:56:48.589Z,943.32
2018-11-03T07:57:48.575Z,943.38
2018-11-03T07:58:48.578Z,943.37
2018-11-03T07:59:48.558Z,943.34
2018-11-03T08:00:48.545Z,943.34
2018-11-03T08:01:48.560Z,943.35
2018-11-03T08:02:48.520Z,943.33
2018-11-03T08:03:48.548Z,943.34
2018-11-03T08:04:48.511Z,943.34
2018-11-03T08:05:48.491Z,943.35
2018-11-03T08:06:48.502Z,943.37
2018-11-03T08:07:48.466Z,943.36
2018-11-03T08:08:48.477Z,943.36
2018-11-03T08:09:48.445Z,943.31
2018-11-03T08:10:48.444Z,943.28
2018-11-03T08:11:48.716Z,943.28
2018-11-03T08:12:48.413Z,943.28
2018-11-03T08:13:48.403Z,943.31
2018-11-03T08:14:48.404Z,943.32
2018-11-03T08:15:48.499Z,943.34
2018-11-03T08:16:48.934Z,943.31
2018-11-03T08:17:48.359Z,943.35
2018-11-03T08:18:48.346Z,943.33
2018-11-03T08:19:48.334Z,943.28
2018-11-03T08:20:51.532Z,943.32
2018-11-03T08:21:48.329Z,943.27
2018-11-03T08:22:48.304Z,943.30
2018-11-03T08:23:48.316Z,943.29
2018-11-03T08:24:48.283Z,943.29
2018-11-03T08:25:48.270Z,943.22
2018-11-03T08:26:48.299Z,943.23
2018-11-03T08:27:48.250Z,943.21
2018-11-03T08:28:48.235Z,943.18
2018-11-03T08:29:48.224Z,943.14
2018-11-03T08:30:48.215Z,943.18
2018-11-03T08:31:48.229Z,943.09
2018-11-03T08:32:48.205Z,943.09
2018-11-03T08:33:48.181Z,943.12
2018-11-03T08:34:48.172Z,943.11
2018-11-03T08:35:48.165Z,943.12
2018-11-03T08:36:48.164Z,943.11
2018-11-03T08:37:48.170Z,943.06
2018-11-03T08:38:48.131Z,943.04
2018-11-03T08:39:48.164Z,943.02
2018-11-03T08:40:48.105Z,943.01
2018-11-03T08:41:48.126Z,942.99
2018-11-03T08:42:48.082Z,943.00
2018-11-03T08:43:48.138Z,942.98
2018-11-03T08:44:48.060Z,943.01
2018-11-03T08:45:48.052Z,942.98
2018-11-03T08:46:48.055Z,943.00
2018-11-03T08:47:48.029Z,943.02
2018-11-03T08:48:48.170Z,942.97
2018-11-03T08:49:48.008Z,942.95
2018-11-03T08:50:47.995Z,942.93
2018-11-03T08:51:48.121Z,942.97
2018-11-03T08:52:47.975Z,942.93
2018-11-03T08:53:47.970Z,942.92
2018-11-03T08:54:47.951Z,942.96
2018-11-03T08:55:47.940Z,942.96
2018-11-03T08:56:48.251Z,942.94
2018-11-03T08:57:47.920Z,942.95
2018-11-03T08:58:47.917Z,942.95
2018-11-03T08:59:48.093Z,942.93
2018-11-03T09:00:47.885Z,942.89
2018-11-03T09:01:47.888Z,942.92
2018-11-03T09:02:47.864Z,942.92
2018-11-03T09:03:48.164Z,942.90
2018-11-03T09:04:48.629Z,942.85
2018-11-03T09:05:47.830Z,942.88
2018-11-03T09:06:47.844Z,942.90
2018-11-03T09:07:47.932Z,942.90
2018-11-03T09:08:47.799Z,942.91
2018-11-03T09:09:47.971Z,942.89
2018-11-03T09:10:47.776Z,942.87
2018-11-03T09:11:47.779Z,942.87
2018-11-03T09:12:47.753Z,942.90
2018-11-03T09:13:47.743Z,942.90
2018-11-03T09:14:47.862Z,942.87
2018-11-03T09:15:47.724Z,942.84
2018-11-03T09:16:47.725Z,942.81
2018-11-03T09:17:47.699Z,942.80
2018-11-03T09:18:47.843Z,942.78
2018-11-03T09:19:48.380Z,942.75
2018-11-03T09:20:48.775Z,942.74
2018-11-03T09:21:47.692Z,942.73
2018-11-03T09:22:47.779Z,942.73
2018-11-03T09:23:47.632Z,942.76
2018-11-03T09:24:47.621Z,942.75
2018-11-03T09:25:47.625Z,942.69
2018-11-03T09:26:47.615Z,942.72
2018-11-03T09:27:47.589Z,942.67
2018-11-03T09:28:47.599Z,942.67
2018-11-03T09:29:47.568Z,942.69
2018-11-03T09:30:47.558Z,942.75
2018-11-03T09:31:48.136Z,942.77
2018-11-03T09:32:47.532Z,942.81
2018-11-03T09:33:47.526Z,942.81
2018-11-03T09:34:47.587Z,942.82
2018-11-03T09:35:47.501Z,942.79
2018-11-03T09:36:47.507Z,942.76
2018-11-03T09:37:47.490Z,942.79
2018-11-03T09:38:47.614Z,942.80
2018-11-03T09:39:47.462Z,942.86
2018-11-03T09:40:47.449Z,942.88
2018-11-03T09:41:47.461Z,942.85
2018-11-03T09:42:47.464Z,942.84
2018-11-03T09:43:47.416Z,942.88
2018-11-03T09:44:47.464Z,942.85
2018-11-03T09:45:47.393Z,942.83
2018-11-03T09:46:47.397Z,942.80
2018-11-03T09:47:47.376Z,942.85
2018-11-03T09:48:47.365Z,942.85
2018-11-03T09:49:47.350Z,942.88
2018-11-03T09:50:47.417Z,942.88
2018-11-03T09:51:47.343Z,942.88
2018-11-03T09:52:47.316Z,942.87
2018-11-03T09:53:47.309Z,942.90
2018-11-03T09:54:47.296Z,942.91
2018-11-03T09:55:47.284Z,942.88
2018-11-03T09:56:47.376Z,942.84
2018-11-03T09:57:47.261Z,942.86
2018-11-03T09:58:47.265Z,942.84
2018-11-03T09:59:47.241Z,942.84
2018-11-03T10:00:47.229Z,942.85
2018-11-03T10:01:47.244Z,942.87
2018-11-03T10:02:47.208Z,942.85
2018-11-03T10:03:47.197Z,942.85
2018-11-03T10:04:47.195Z,942.79
2018-11-03T10:05:47.175Z,942.85
2018-11-03T10:06:47.180Z,942.84
2018-11-03T10:07:47.152Z,942.83
2018-11-03T10:08:47.144Z,942.80
2018-11-03T10:09:47.140Z,942.82
2018-11-03T10:10:47.120Z,942.82
2018-11-03T10:11:47.125Z,942.81
2018-11-03T10:12:47.099Z,942.77
2018-11-03T10:13:47.090Z,942.81
2018-11-03T10:14:47.077Z,942.76
2018-11-03T10:15:47.129Z,942.74
2018-11-03T10:16:47.070Z,942.69
2018-11-03T10:17:47.055Z,942.68
2018-11-03T10:18:47.033Z,942.66
2018-11-03T10:19:47.022Z,942.67
2018-11-03T10:20:47.012Z,942.61
2018-11-03T10:21:47.086Z,942.67
2018-11-03T10:22:47.058Z,942.62
2018-11-03T10:23:46.982Z,942.63
2018-11-03T10:24:46.970Z,942.58
2018-11-03T10:25:46.957Z,942.61
2018-11-03T10:26:46.963Z,942.55
2018-11-03T10:27:46.940Z,942.59
2018-11-03T10:28:46.938Z,942.55
2018-11-03T10:29:46.941Z,942.57
2018-11-03T10:30:46.904Z,942.49
2018-11-03T10:31:46.913Z,942.54
2018-11-03T10:32:46.890Z,942.59
2018-11-03T10:33:47.034Z,942.53
2018-11-03T10:34:46.880Z,942.53
2018-11-03T10:35:46.899Z,942.50
2018-11-03T10:36:46.893Z,942.43
2018-11-03T10:37:46.832Z,942.49
2018-11-03T10:38:46.828Z,942.51
2018-11-03T10:39:46.817Z,942.51
2018-11-03T10:40:46.798Z,942.53
2018-11-03T10:41:46.787Z,942.52
2018-11-03T10:42:46.798Z,942.51
2018-11-03T10:43:46.768Z,942.54
2018-11-03T10:44:46.788Z,942.51
2018-11-03T10:45:46.749Z,942.52
2018-11-03T10:46:46.744Z,942.51
2018-11-03T10:47:46.807Z,942.49
2018-11-03T10:48:46.714Z,942.49
2018-11-03T10:49:46.701Z,942.45
2018-11-03T10:50:46.705Z,942.42
2018-11-03T10:51:46.684Z,942.42
2018-11-03T10:52:46.685Z,942.43
2018-11-03T10:53:46.748Z,942.37
2018-11-03T10:54:46.646Z,942.35
2018-11-03T10:55:46.676Z,942.34
2018-11-03T10:56:46.627Z,942.35
2018-11-03T10:57:46.633Z,942.35
2018-11-03T10:58:46.611Z,942.35
2018-11-03T10:59:46.599Z,942.39
2018-11-03T11:00:46.596Z,942.35
2018-11-03T11:01:46.573Z,942.37
2018-11-03T11:02:46.581Z,942.39
2018-11-03T11:03:46.742Z,942.41
2018-11-03T11:04:46.557Z,942.37
2018-11-03T11:05:46.529Z,942.38
2018-11-03T11:06:46.521Z,942.40
2018-11-03T11:07:46.527Z,942.41
2018-11-03T11:08:46.503Z,942.40
2018-11-03T11:09:46.490Z,942.37
2018-11-03T11:10:46.520Z,942.42
2018-11-03T11:11:46.470Z,942.40
2018-11-03T11:12:46.474Z,942.41
2018-11-03T11:13:46.450Z,942.39
2018-11-03T11:14:46.440Z,942.38
2018-11-03T11:15:46.439Z,942.39
2018-11-03T11:16:46.431Z,942.40
2018-11-03T11:17:46.461Z,942.40
2018-11-03T11:18:46.394Z,942.37
2018-11-03T11:19:46.384Z,942.34
2018-11-03T11:20:46.371Z,942.30
2018-11-03T11:21:46.725Z,942.31
2018-11-03T11:22:46.365Z,942.26
2018-11-03T11:23:46.367Z,942.26
2018-11-03T11:24:46.438Z,942.29
2018-11-03T11:25:46.332Z,942.29
2018-11-03T11:26:46.307Z,942.27
2018-11-03T11:27:46.311Z,942.28
2018-11-03T11:28:46.289Z,942.25
2018-11-03T11:29:46.275Z,942.22
2018-11-03T11:30:46.265Z,942.19
2018-11-03T11:31:46.265Z,942.17
2018-11-03T11:32:46.308Z,942.17
2018-11-03T11:33:46.232Z,942.17
2018-11-03T11:34:46.222Z,942.13
2018-11-03T11:35:46.223Z,942.18
2018-11-03T11:36:46.201Z,942.12
2018-11-03T11:37:46.835Z,942.12
2018-11-03T11:38:46.372Z,942.10
2018-11-03T11:39:46.192Z,942.08
2018-11-03T11:40:46.159Z,942.04
2018-11-03T11:41:46.150Z,942.07
2018-11-03T11:42:46.180Z,942.04
2018-11-03T11:43:46.143Z,942.03
2018-11-03T11:44:46.120Z,942.03
2018-11-03T11:45:46.114Z,942.00
2018-11-03T11:46:46.097Z,942.02
2018-11-03T11:47:46.086Z,942.04
2018-11-03T11:48:46.108Z,942.02
2018-11-03T11:49:46.067Z,942.00
2018-11-03T11:50:46.065Z,941.99
2018-11-03T11:51:46.043Z,942.02
2018-11-03T11:52:46.034Z,942.02
2018-11-03T11:53:46.041Z,942.02
2018-11-03T11:54:46.053Z,942.00
2018-11-03T11:55:46.002Z,942.02
2018-11-03T11:56:46.014Z,942.02
2018-11-03T11:57:45.991Z,942.02
2018-11-03T11:58:45.985Z,941.99
2018-11-03T11:59:45.964Z,941.95
2018-11-03T12:00:46.023Z,942.00
2018-11-03T12:01:45.944Z,942.01
2018-11-03T12:02:45.929Z,942.07
2018-11-03T12:03:45.934Z,942.04
2018-11-03T12:04:45.913Z,942.02
2018-11-03T12:05:45.896Z,941.99
2018-11-03T12:06:45.885Z,941.98
2018-11-03T12:07:45.875Z,941.97
2018-11-03T12:08:45.882Z,942.01
2018-11-03T12:09:45.855Z,942.05
2018-11-03T12:10:45.850Z,942.10
2018-11-03T12:11:45.832Z,942.07
2018-11-03T12:12:45.823Z,942.10
2018-11-03T12:13:45.829Z,942.10
2018-11-03T12:14:45.803Z,942.05
2018-11-03T12:15:45.789Z,942.05
2018-11-03T12:16:45.780Z,942.05
2018-11-03T12:17:45.789Z,942.02
2018-11-03T12:18:45.784Z,942.07
2018-11-03T12:19:45.762Z,942.00
2018-11-03T12:20:45.738Z,942.00
2018-11-03T12:21:45.735Z,942.02
2018-11-03T12:22:45.721Z,942.03
2018-11-03T12:23:45.722Z,941.99
2018-11-03T12:24:45.698Z,941.98
2018-11-03T12:25:45.806Z,941.99
2018-11-03T12:26:45.704Z,941.95
2018-11-03T12:27:45.664Z,941.91
2018-11-03T12:28:45.669Z,941.89